sensor_id;sensor_type;location;lat;lon;timestamp;P1;durP1;ratioP1;P2;durP2;ratioP2
13238;SDS011;6686;51.292;4.166;2023-03-26T00:02:17;27.07;;;5.60;;
13238;SDS011;6686;51.292;4.166;2023-03-26T00:05:03;22.23;;;5.80;;
13238;SDS011;6686;51.292;4.166;2023-03-26T00:07:52;25.60;;;6.53;;
13238;SDS011;6686;51.292;4.166;2023-03-26T00:10:38;27.07;;;6.37;;
13238;SDS011;6686;51.292;4.166;2023-03-26T00:13:24;20.60;;;5.93;;
13238;SDS011;6686;51.292;4.166;2023-03-26T00:16:10;20.43;;;5.77;;
13238;SDS011;6686;51.292;4.166;2023-03-26T00:18:56;21.43;;;5.33;;
13238;SDS011;6686;51.292;4.166;2023-03-26T00:21:41;20.20;;;5.70;;
13238;SDS011;6686;51.292;4.166;2023-03-26T00:24:27;27.27;;;5.37;;
13238;SDS011;6686;51.292;4.166;2023-03-26T00:27:13;26.20;;;4.90;;
13238;SDS011;6686;51.292;4.166;2023-03-26T00:29:59;22.07;;;5.10;;
13238;SDS011;6686;51.292;4.166;2023-03-26T00:32:45;24.83;;;5.57;;
13238;SDS011;6686;51.292;4.166;2023-03-26T00:35:34;23.37;;;4.50;;
13238;SDS011;6686;51.292;4.166;2023-03-26T00:38:20;21.23;;;5.87;;
13238;SDS011;6686;51.292;4.166;2023-03-26T00:41:06;17.93;;;5.10;;
13238;SDS011;6686;51.292;4.166;2023-03-26T00:43:53;19.83;;;5.80;;
13238;SDS011;6686;51.292;4.166;2023-03-26T00:46:38;22.07;;;5.60;;
13238;SDS011;6686;51.292;4.166;2023-03-26T00:49:24;20.50;;;5.30;;
13238;SDS011;6686;51.292;4.166;2023-03-26T00:52:12;16.73;;;4.47;;
13238;SDS011;6686;51.292;4.166;2023-03-26T00:54:58;19.17;;;5.33;;
13238;SDS011;6686;51.292;4.166;2023-03-26T00:57:44;25.73;;;4.60;;
13238;SDS011;6686;51.292;4.166;2023-03-26T01:00:30;19.03;;;4.03;;
13238;SDS011;6686;51.292;4.166;2023-03-26T01:03:15;23.63;;;4.83;;
13238;SDS011;6686;51.292;4.166;2023-03-26T01:06:02;19.23;;;4.80;;
13238;SDS011;6686;51.292;4.166;2023-03-26T01:08:50;23.47;;;5.00;;
13238;SDS011;6686;51.292;4.166;2023-03-26T01:11:36;16.63;;;4.40;;
13238;SDS011;6686;51.292;4.166;2023-03-26T01:14:22;19.40;;;4.70;;
13238;SDS011;6686;51.292;4.166;2023-03-26T01:17:08;19.97;;;4.90;;
13238;SDS011;6686;51.292;4.166;2023-03-26T01:20:04;19.50;;;5.07;;
13238;SDS011;6686;51.292;4.166;2023-03-26T01:22:46;21.23;;;4.87;;
13238;SDS011;6686;51.292;4.166;2023-03-26T01:25:36;16.47;;;4.20;;
13238;SDS011;6686;51.292;4.166;2023-03-26T01:28:19;21.67;;;4.23;;
13238;SDS011;6686;51.292;4.166;2023-03-26T01:31:18;20.10;;;4.23;;
13238;SDS011;6686;51.292;4.166;2023-03-26T01:34:16;22.27;;;4.00;;
13238;SDS011;6686;51.292;4.166;2023-03-26T01:39:52;19.73;;;4.80;;
13238;SDS011;6686;51.292;4.166;2023-03-26T01:42:40;21.17;;;4.47;;
13238;SDS011;6686;51.292;4.166;2023-03-26T01:45:25;16.53;;;3.70;;
13238;SDS011;6686;51.292;4.166;2023-03-26T01:48:10;16.23;;;4.30;;
13238;SDS011;6686;51.292;4.166;2023-03-26T01:50:56;13.77;;;3.87;;
13238;SDS011;6686;51.292;4.166;2023-03-26T01:53:43;16.70;;;4.07;;
13238;SDS011;6686;51.292;4.166;2023-03-26T01:56:49;14.57;;;4.20;;
13238;SDS011;6686;51.292;4.166;2023-03-26T02:06:14;15.00;;;4.30;;
13238;SDS011;6686;51.292;4.166;2023-03-26T02:08:58;15.20;;;4.03;;
13238;SDS011;6686;51.292;4.166;2023-03-26T02:11:42;12.90;;;3.53;;
13238;SDS011;6686;51.292;4.166;2023-03-26T02:14:29;16.47;;;3.97;;
13238;SDS011;6686;51.292;4.166;2023-03-26T02:17:14;13.17;;;3.53;;
13238;SDS011;6686;51.292;4.166;2023-03-26T02:20:00;15.70;;;4.07;;
13238;SDS011;6686;51.292;4.166;2023-03-26T02:22:46;18.60;;;4.68;;
13238;SDS011;6686;51.292;4.166;2023-03-26T02:25:32;16.47;;;4.53;;
13238;SDS011;6686;51.292;4.166;2023-03-26T02:28:18;15.77;;;3.73;;
13238;SDS011;6686;51.292;4.166;2023-03-26T02:31:04;14.77;;;3.83;;
13238;SDS011;6686;51.292;4.166;2023-03-26T02:33:50;12.13;;;3.47;;
13238;SDS011;6686;51.292;4.166;2023-03-26T02:36:35;11.80;;;3.53;;
13238;SDS011;6686;51.292;4.166;2023-03-26T02:39:21;16.87;;;3.70;;
13238;SDS011;6686;51.292;4.166;2023-03-26T02:42:07;17.17;;;3.60;;
13238;SDS011;6686;51.292;4.166;2023-03-26T02:44:53;9.97;;;3.47;;
13238;SDS011;6686;51.292;4.166;2023-03-26T02:47:39;10.40;;;4.10;;
13238;SDS011;6686;51.292;4.166;2023-03-26T02:50:24;18.23;;;4.60;;
13238;SDS011;6686;51.292;4.166;2023-03-26T02:53:11;15.10;;;4.03;;
13238;SDS011;6686;51.292;4.166;2023-03-26T02:55:57;10.30;;;3.77;;
13238;SDS011;6686;51.292;4.166;2023-03-26T02:58:42;16.25;;;5.25;;
13238;SDS011;6686;51.292;4.166;2023-03-26T03:01:28;16.43;;;4.80;;
13238;SDS011;6686;51.292;4.166;2023-03-26T03:04:17;12.37;;;3.60;;
13238;SDS011;6686;51.292;4.166;2023-03-26T03:07:03;14.03;;;3.87;;
13238;SDS011;6686;51.292;4.166;2023-03-26T03:09:49;14.33;;;4.20;;
13238;SDS011;6686;51.292;4.166;2023-03-26T03:12:35;13.90;;;3.50;;
13238;SDS011;6686;51.292;4.166;2023-03-26T03:15:20;18.43;;;9.33;;
13238;SDS011;6686;51.292;4.166;2023-03-26T03:18:07;13.60;;;3.80;;
13238;SDS011;6686;51.292;4.166;2023-03-26T03:20:53;15.47;;;4.13;;
13238;SDS011;6686;51.292;4.166;2023-03-26T03:23:39;17.60;;;3.80;;
13238;SDS011;6686;51.292;4.166;2023-03-26T03:26:25;13.77;;;4.27;;
13238;SDS011;6686;51.292;4.166;2023-03-26T03:29:13;15.97;;;4.10;;
13238;SDS011;6686;51.292;4.166;2023-03-26T03:31:59;21.60;;;4.33;;
13238;SDS011;6686;51.292;4.166;2023-03-26T03:34:45;19.10;;;5.70;;
13238;SDS011;6686;51.292;4.166;2023-03-26T03:37:31;16.53;;;4.17;;
13238;SDS011;6686;51.292;4.166;2023-03-26T03:40:16;11.70;;;3.60;;
13238;SDS011;6686;51.292;4.166;2023-03-26T03:43:02;10.57;;;3.70;;
13238;SDS011;6686;51.292;4.166;2023-03-26T03:45:49;21.20;;;3.80;;
13238;SDS011;6686;51.292;4.166;2023-03-26T03:48:34;14.73;;;3.57;;
13238;SDS011;6686;51.292;4.166;2023-03-26T03:51:24;11.50;;;3.93;;
13238;SDS011;6686;51.292;4.166;2023-03-26T03:54:10;13.80;;;3.77;;
13238;SDS011;6686;51.292;4.166;2023-03-26T03:56:56;12.07;;;3.60;;
13238;SDS011;6686;51.292;4.166;2023-03-26T03:59:41;16.03;;;3.53;;
13238;SDS011;6686;51.292;4.166;2023-03-26T04:02:27;10.33;;;3.40;;
13238;SDS011;6686;51.292;4.166;2023-03-26T04:05:16;14.07;;;3.90;;
13238;SDS011;6686;51.292;4.166;2023-03-26T04:08:02;14.57;;;4.00;;
13238;SDS011;6686;51.292;4.166;2023-03-26T04:10:49;11.77;;;3.80;;
13238;SDS011;6686;51.292;4.166;2023-03-26T04:13:34;14.00;;;4.43;;
13238;SDS011;6686;51.292;4.166;2023-03-26T04:16:20;13.43;;;4.07;;
13238;SDS011;6686;51.292;4.166;2023-03-26T04:19:06;17.00;;;4.43;;
13238;SDS011;6686;51.292;4.166;2023-03-26T04:21:52;14.43;;;4.70;;
13238;SDS011;6686;51.292;4.166;2023-03-26T04:24:38;13.77;;;3.83;;
13238;SDS011;6686;51.292;4.166;2023-03-26T04:27:25;9.73;;;3.70;;
13238;SDS011;6686;51.292;4.166;2023-03-26T04:30:10;13.73;;;3.30;;
13238;SDS011;6686;51.292;4.166;2023-03-26T04:32:56;9.77;;;3.27;;
13238;SDS011;6686;51.292;4.166;2023-03-26T04:35:42;13.97;;;3.73;;
13238;SDS011;6686;51.292;4.166;2023-03-26T04:38:29;11.20;;;3.17;;
13238;SDS011;6686;51.292;4.166;2023-03-26T04:41:14;14.10;;;4.43;;
13238;SDS011;6686;51.292;4.166;2023-03-26T04:44:00;14.70;;;4.03;;
13238;SDS011;6686;51.292;4.166;2023-03-26T04:46:47;18.13;;;5.70;;
13238;SDS011;6686;51.292;4.166;2023-03-26T04:49:32;12.00;;;4.90;;
13238;SDS011;6686;51.292;4.166;2023-03-26T04:52:18;16.67;;;5.15;;
13238;SDS011;6686;51.292;4.166;2023-03-26T04:55:05;17.73;;;4.60;;
13238;SDS011;6686;51.292;4.166;2023-03-26T04:57:54;11.97;;;4.27;;
13238;SDS011;6686;51.292;4.166;2023-03-26T05:00:42;17.27;;;4.60;;
13238;SDS011;6686;51.292;4.166;2023-03-26T05:03:28;11.43;;;4.00;;
13238;SDS011;6686;51.292;4.166;2023-03-26T05:06:16;14.37;;;4.30;;
13238;SDS011;6686;51.292;4.166;2023-03-26T05:09:03;9.83;;;3.23;;
13238;SDS011;6686;51.292;4.166;2023-03-26T05:11:49;11.13;;;3.97;;
13238;SDS011;6686;51.292;4.166;2023-03-26T05:14:35;8.87;;;3.10;;
13238;SDS011;6686;51.292;4.166;2023-03-26T05:17:21;11.38;;;4.05;;
13238;SDS011;6686;51.292;4.166;2023-03-26T05:20:11;10.07;;;3.83;;
13238;SDS011;6686;51.292;4.166;2023-03-26T05:22:53;8.07;;;3.80;;
13238;SDS011;6686;51.292;4.166;2023-03-26T05:25:38;16.40;;;5.00;;
13238;SDS011;6686;51.292;4.166;2023-03-26T05:28:24;14.43;;;4.77;;
13238;SDS011;6686;51.292;4.166;2023-03-26T05:31:10;12.03;;;4.83;;
13238;SDS011;6686;51.292;4.166;2023-03-26T05:33:56;17.20;;;4.53;;
13238;SDS011;6686;51.292;4.166;2023-03-26T05:36:42;14.13;;;3.97;;
13238;SDS011;6686;51.292;4.166;2023-03-26T05:39:28;18.23;;;4.80;;
13238;SDS011;6686;51.292;4.166;2023-03-26T05:42:14;10.97;;;4.37;;
13238;SDS011;6686;51.292;4.166;2023-03-26T05:44:59;17.23;;;3.77;;
13238;SDS011;6686;51.292;4.166;2023-03-26T05:47:45;17.37;;;4.40;;
13238;SDS011;6686;51.292;4.166;2023-03-26T05:50:31;16.53;;;4.50;;
13238;SDS011;6686;51.292;4.166;2023-03-26T05:53:17;15.00;;;4.73;;
13238;SDS011;6686;51.292;4.166;2023-03-26T05:56:03;15.17;;;4.63;;
13238;SDS011;6686;51.292;4.166;2023-03-26T05:58:49;13.50;;;4.23;;
13238;SDS011;6686;51.292;4.166;2023-03-26T06:01:35;13.17;;;5.10;;
13238;SDS011;6686;51.292;4.166;2023-03-26T06:04:21;18.73;;;4.27;;
13238;SDS011;6686;51.292;4.166;2023-03-26T06:07:07;13.93;;;4.23;;
13238;SDS011;6686;51.292;4.166;2023-03-26T06:09:56;16.50;;;4.50;;
13238;SDS011;6686;51.292;4.166;2023-03-26T06:12:42;14.90;;;4.03;;
13238;SDS011;6686;51.292;4.166;2023-03-26T06:15:28;9.83;;;4.00;;
13238;SDS011;6686;51.292;4.166;2023-03-26T06:18:14;13.93;;;4.33;;
13238;SDS011;6686;51.292;4.166;2023-03-26T06:21:00;16.08;;;4.82;;
13238;SDS011;6686;51.292;4.166;2023-03-26T06:23:46;11.97;;;4.57;;
13238;SDS011;6686;51.292;4.166;2023-03-26T06:26:32;14.83;;;4.03;;
13238;SDS011;6686;51.292;4.166;2023-03-26T06:29:18;17.00;;;4.43;;
13238;SDS011;6686;51.292;4.166;2023-03-26T06:32:04;13.98;;;4.68;;
13238;SDS011;6686;51.292;4.166;2023-03-26T06:34:50;14.33;;;3.83;;
13238;SDS011;6686;51.292;4.166;2023-03-26T06:37:36;11.30;;;4.17;;
13238;SDS011;6686;51.292;4.166;2023-03-26T06:40:22;19.30;;;4.63;;
13238;SDS011;6686;51.292;4.166;2023-03-26T06:43:08;13.87;;;4.20;;
13238;SDS011;6686;51.292;4.166;2023-03-26T06:45:54;12.17;;;4.23;;
13238;SDS011;6686;51.292;4.166;2023-03-26T06:48:40;14.37;;;5.37;;
13238;SDS011;6686;51.292;4.166;2023-03-26T06:51:26;14.40;;;4.70;;
13238;SDS011;6686;51.292;4.166;2023-03-26T06:54:12;11.17;;;4.77;;
13238;SDS011;6686;51.292;4.166;2023-03-26T06:56:58;14.77;;;4.80;;
13238;SDS011;6686;51.292;4.166;2023-03-26T06:59:44;12.40;;;4.07;;
13238;SDS011;6686;51.292;4.166;2023-03-26T07:02:30;12.70;;;3.87;;
13238;SDS011;6686;51.292;4.166;2023-03-26T07:05:16;17.00;;;4.03;;
13238;SDS011;6686;51.292;4.166;2023-03-26T07:08:01;7.40;;;3.67;;
13238;SDS011;6686;51.292;4.166;2023-03-26T07:10:47;9.53;;;3.57;;
13238;SDS011;6686;51.292;4.166;2023-03-26T07:13:33;9.27;;;2.93;;
13238;SDS011;6686;51.292;4.166;2023-03-26T07:16:19;9.37;;;3.03;;
13238;SDS011;6686;51.292;4.166;2023-03-26T07:19:06;9.02;;;2.70;;
13238;SDS011;6686;51.292;4.166;2023-03-26T07:21:52;6.23;;;2.73;;
13238;SDS011;6686;51.292;4.166;2023-03-26T07:24:38;7.53;;;2.43;;
13238;SDS011;6686;51.292;4.166;2023-03-26T07:33:34;6.47;;;2.23;;
13238;SDS011;6686;51.292;4.166;2023-03-26T07:36:31;5.67;;;2.53;;
13238;SDS011;6686;51.292;4.166;2023-03-26T07:45:36;4.57;;;1.93;;
13238;SDS011;6686;51.292;4.166;2023-03-26T07:48:22;6.07;;;2.50;;
13238;SDS011;6686;51.292;4.166;2023-03-26T07:51:10;3.63;;;2.23;;
13238;SDS011;6686;51.292;4.166;2023-03-26T07:53:56;7.28;;;2.50;;
13238;SDS011;6686;51.292;4.166;2023-03-26T07:56:48;7.80;;;2.70;;
13238;SDS011;6686;51.292;4.166;2023-03-26T07:59:39;8.60;;;2.30;;
13238;SDS011;6686;51.292;4.166;2023-03-26T08:02:49;9.80;;;2.70;;
13238;SDS011;6686;51.292;4.166;2023-03-26T08:05:19;9.33;;;3.33;;
13238;SDS011;6686;51.292;4.166;2023-03-26T08:08:18;7.97;;;3.40;;
13238;SDS011;6686;51.292;4.166;2023-03-26T08:14:48;6.97;;;2.13;;
13238;SDS011;6686;51.292;4.166;2023-03-26T08:17:35;4.83;;;2.97;;
13238;SDS011;6686;51.292;4.166;2023-03-26T08:23:14;6.30;;;3.40;;
13238;SDS011;6686;51.292;4.166;2023-03-26T08:31:45;4.40;;;1.93;;
13238;SDS011;6686;51.292;4.166;2023-03-26T08:34:31;5.50;;;2.53;;
13238;SDS011;6686;51.292;4.166;2023-03-26T08:37:16;5.93;;;2.57;;
13238;SDS011;6686;51.292;4.166;2023-03-26T08:40:02;5.10;;;2.13;;
13238;SDS011;6686;51.292;4.166;2023-03-26T08:48:58;6.10;;;2.17;;
13238;SDS011;6686;51.292;4.166;2023-03-26T09:06:37;7.13;;;2.30;;
13238;SDS011;6686;51.292;4.166;2023-03-26T09:09:26;5.15;;;2.55;;
13238;SDS011;6686;51.292;4.166;2023-03-26T09:31:26;3.97;;;1.90;;
13238;SDS011;6686;51.292;4.166;2023-03-26T09:34:26;5.60;;;2.70;;
13238;SDS011;6686;51.292;4.166;2023-03-26T09:40:19;3.47;;;2.07;;
13238;SDS011;6686;51.292;4.166;2023-03-26T09:43:24;5.83;;;2.63;;
13238;SDS011;6686;51.292;4.166;2023-03-26T09:48:57;4.77;;;2.07;;
13238;SDS011;6686;51.292;4.166;2023-03-26T09:54:57;3.73;;;2.00;;
13238;SDS011;6686;51.292;4.166;2023-03-26T10:00:57;3.40;;;2.10;;
13238;SDS011;6686;51.292;4.166;2023-03-26T10:06:48;4.60;;;1.67;;
13238;SDS011;6686;51.292;4.166;2023-03-26T10:09:42;3.13;;;1.73;;
13238;SDS011;6686;51.292;4.166;2023-03-26T10:12:38;4.53;;;2.00;;
13238;SDS011;6686;51.292;4.166;2023-03-26T10:18:26;3.53;;;1.80;;
13238;SDS011;6686;51.292;4.166;2023-03-26T10:30:17;4.50;;;1.97;;
13238;SDS011;6686;51.292;4.166;2023-03-26T10:42:24;3.20;;;1.73;;
13238;SDS011;6686;51.292;4.166;2023-03-26T10:45:10;3.73;;;1.90;;
13238;SDS011;6686;51.292;4.166;2023-03-26T10:54:10;2.77;;;2.10;;
13238;SDS011;6686;51.292;4.166;2023-03-26T10:56:53;4.40;;;2.17;;
13238;SDS011;6686;51.292;4.166;2023-03-26T10:59:39;6.10;;;2.50;;
13238;SDS011;6686;51.292;4.166;2023-03-26T11:02:28;3.33;;;2.50;;
13238;SDS011;6686;51.292;4.166;2023-03-26T11:05:37;2.57;;;2.00;;
13238;SDS011;6686;51.292;4.166;2023-03-26T11:08:42;2.10;;;1.60;;
13238;SDS011;6686;51.292;4.166;2023-03-26T11:17:33;2.22;;;1.40;;
13238;SDS011;6686;51.292;4.166;2023-03-26T11:20:24;2.07;;;1.30;;
13238;SDS011;6686;51.292;4.166;2023-03-26T11:26:41;4.07;;;1.77;;
13238;SDS011;6686;51.292;4.166;2023-03-26T11:32:26;3.22;;;1.70;;
13238;SDS011;6686;51.292;4.166;2023-03-26T11:35:16;3.37;;;1.90;;
13238;SDS011;6686;51.292;4.166;2023-03-26T11:38:02;3.53;;;1.73;;
13238;SDS011;6686;51.292;4.166;2023-03-26T11:40:47;2.83;;;1.85;;
13238;SDS011;6686;51.292;4.166;2023-03-26T11:43:35;4.28;;;2.15;;
13238;SDS011;6686;51.292;4.166;2023-03-26T11:46:22;2.10;;;1.67;;
13238;SDS011;6686;51.292;4.166;2023-03-26T11:49:08;3.83;;;1.80;;
13238;SDS011;6686;51.292;4.166;2023-03-26T11:51:53;5.43;;;2.50;;
13238;SDS011;6686;51.292;4.166;2023-03-26T11:54:39;3.60;;;2.00;;
13238;SDS011;6686;51.292;4.166;2023-03-26T11:57:25;3.77;;;2.63;;
13238;SDS011;6686;51.292;4.166;2023-03-26T12:00:13;3.63;;;2.23;;
13238;SDS011;6686;51.292;4.166;2023-03-26T12:03:02;2.60;;;1.77;;
13238;SDS011;6686;51.292;4.166;2023-03-26T12:05:49;4.07;;;2.05;;
13238;SDS011;6686;51.292;4.166;2023-03-26T12:08:37;3.20;;;1.77;;
13238;SDS011;6686;51.292;4.166;2023-03-26T12:11:27;3.53;;;1.57;;
13238;SDS011;6686;51.292;4.166;2023-03-26T12:14:19;1.47;;;1.17;;
13238;SDS011;6686;51.292;4.166;2023-03-26T12:17:07;2.23;;;1.27;;
13238;SDS011;6686;51.292;4.166;2023-03-26T12:19:52;4.17;;;1.50;;
13238;SDS011;6686;51.292;4.166;2023-03-26T12:22:38;2.47;;;1.37;;
13238;SDS011;6686;51.292;4.166;2023-03-26T12:25:25;2.00;;;1.30;;
13238;SDS011;6686;51.292;4.166;2023-03-26T12:31:02;1.57;;;1.30;;
13238;SDS011;6686;51.292;4.166;2023-03-26T12:34:12;2.60;;;1.30;;
13238;SDS011;6686;51.292;4.166;2023-03-26T12:36:36;3.15;;;1.52;;
13238;SDS011;6686;51.292;4.166;2023-03-26T12:42:25;1.47;;;1.30;;
13238;SDS011;6686;51.292;4.166;2023-03-26T12:45:11;2.43;;;1.40;;
13238;SDS011;6686;51.292;4.166;2023-03-26T12:47:55;2.53;;;1.58;;
13238;SDS011;6686;51.292;4.166;2023-03-26T12:50:47;2.78;;;1.60;;
13238;SDS011;6686;51.292;4.166;2023-03-26T12:53:47;3.10;;;1.87;;
13238;SDS011;6686;51.292;4.166;2023-03-26T13:03:03;4.63;;;1.80;;
13238;SDS011;6686;51.292;4.166;2023-03-26T13:09:05;3.17;;;1.40;;
13238;SDS011;6686;51.292;4.166;2023-03-26T13:15:08;3.37;;;1.70;;
13238;SDS011;6686;51.292;4.166;2023-03-26T13:17:56;2.57;;;1.57;;
13238;SDS011;6686;51.292;4.166;2023-03-26T13:21:00;2.00;;;1.63;;
13238;SDS011;6686;51.292;4.166;2023-03-26T13:24:03;4.00;;;2.17;;
13238;SDS011;6686;51.292;4.166;2023-03-26T13:33:31;4.07;;;2.10;;
13238;SDS011;6686;51.292;4.166;2023-03-26T13:39:20;3.23;;;2.20;;
13238;SDS011;6686;51.292;4.166;2023-03-26T13:42:16;4.13;;;2.00;;
13238;SDS011;6686;51.292;4.166;2023-03-26T13:45:01;4.43;;;2.30;;
13238;SDS011;6686;51.292;4.166;2023-03-26T13:47:47;3.50;;;2.20;;
13238;SDS011;6686;51.292;4.166;2023-03-26T13:50:32;5.13;;;2.27;;
13238;SDS011;6686;51.292;4.166;2023-03-26T13:53:23;2.47;;;2.10;;
13238;SDS011;6686;51.292;4.166;2023-03-26T13:56:08;5.17;;;2.27;;
13238;SDS011;6686;51.292;4.166;2023-03-26T13:58:55;3.17;;;1.90;;
13238;SDS011;6686;51.292;4.166;2023-03-26T14:02:29;5.40;;;2.80;;
13238;SDS011;6686;51.292;4.166;2023-03-26T14:04:32;4.90;;;2.57;;
13238;SDS011;6686;51.292;4.166;2023-03-26T14:07:23;6.07;;;3.27;;
13238;SDS011;6686;51.292;4.166;2023-03-26T14:13:01;8.43;;;3.40;;
13238;SDS011;6686;51.292;4.166;2023-03-26T14:15:46;8.40;;;3.57;;
13238;SDS011;6686;51.292;4.166;2023-03-26T14:18:45;7.60;;;3.30;;
13238;SDS011;6686;51.292;4.166;2023-03-26T14:27:37;5.20;;;3.50;;
13238;SDS011;6686;51.292;4.166;2023-03-26T14:39:21;11.43;;;4.27;;
13238;SDS011;6686;51.292;4.166;2023-03-26T14:42:26;9.73;;;4.17;;
13238;SDS011;6686;51.292;4.166;2023-03-26T14:51:40;7.47;;;3.27;;
13238;SDS011;6686;51.292;4.166;2023-03-26T14:54:23;10.68;;;4.55;;
13238;SDS011;6686;51.292;4.166;2023-03-26T15:03:32;13.97;;;4.40;;
13238;SDS011;6686;51.292;4.166;2023-03-26T15:16:44;12.23;;;4.47;;
13238;SDS011;6686;51.292;4.166;2023-03-26T15:26:20;9.48;;;3.47;;
13238;SDS011;6686;51.292;4.166;2023-03-26T15:29:22;7.37;;;3.00;;
13238;SDS011;6686;51.292;4.166;2023-03-26T15:32:06;6.57;;;2.93;;
13238;SDS011;6686;51.292;4.166;2023-03-26T15:34:54;9.23;;;2.50;;
13238;SDS011;6686;51.292;4.166;2023-03-26T15:40:48;8.00;;;2.70;;
13238;SDS011;6686;51.292;4.166;2023-03-26T16:02:17;10.83;;;3.10;;
13238;SDS011;6686;51.292;4.166;2023-03-26T16:05:01;9.73;;;3.13;;
13238;SDS011;6686;51.292;4.166;2023-03-26T16:07:46;9.87;;;2.97;;
13238;SDS011;6686;51.292;4.166;2023-03-26T16:10:47;13.40;;;3.83;;
13238;SDS011;6686;51.292;4.166;2023-03-26T16:16:16;11.10;;;2.90;;
13238;SDS011;6686;51.292;4.166;2023-03-26T16:22:06;9.10;;;2.83;;
13238;SDS011;6686;51.292;4.166;2023-03-26T16:25:11;10.90;;;3.07;;
13238;SDS011;6686;51.292;4.166;2023-03-26T16:27:38;10.80;;;3.30;;
13238;SDS011;6686;51.292;4.166;2023-03-26T16:30:30;10.57;;;3.43;;
13238;SDS011;6686;51.292;4.166;2023-03-26T16:33:17;7.63;;;2.37;;
13238;SDS011;6686;51.292;4.166;2023-03-26T16:36:13;8.77;;;2.70;;
13238;SDS011;6686;51.292;4.166;2023-03-26T16:38:52;7.33;;;2.50;;
13238;SDS011;6686;51.292;4.166;2023-03-26T16:41:56;10.57;;;3.40;;
13238;SDS011;6686;51.292;4.166;2023-03-26T16:50:38;12.77;;;3.47;;
13238;SDS011;6686;51.292;4.166;2023-03-26T17:08:55;7.63;;;2.87;;
13238;SDS011;6686;51.292;4.166;2023-03-26T17:18:02;7.63;;;2.67;;
13238;SDS011;6686;51.292;4.166;2023-03-26T17:20:56;10.67;;;3.20;;
13238;SDS011;6686;51.292;4.166;2023-03-26T17:26:38;12.83;;;3.13;;
13238;SDS011;6686;51.292;4.166;2023-03-26T17:32:13;11.70;;;2.67;;
13238;SDS011;6686;51.292;4.166;2023-03-26T17:34:59;11.90;;;3.00;;
13238;SDS011;6686;51.292;4.166;2023-03-26T17:37:44;9.07;;;2.80;;
13238;SDS011;6686;51.292;4.166;2023-03-26T17:40:47;10.47;;;2.90;;
13238;SDS011;6686;51.292;4.166;2023-03-26T17:49:26;11.47;;;3.13;;
13238;SDS011;6686;51.292;4.166;2023-03-26T17:54:57;6.80;;;2.90;;
13238;SDS011;6686;51.292;4.166;2023-03-26T17:57:44;5.27;;;2.53;;
13238;SDS011;6686;51.292;4.166;2023-03-26T18:00:42;10.90;;;3.60;;
13238;SDS011;6686;51.292;4.166;2023-03-26T18:03:43;8.00;;;2.60;;
13238;SDS011;6686;51.292;4.166;2023-03-26T18:09:55;8.03;;;2.87;;
13238;SDS011;6686;51.292;4.166;2023-03-26T18:16:04;11.20;;;2.50;;
13238;SDS011;6686;51.292;4.166;2023-03-26T18:18:58;8.38;;;2.80;;
13238;SDS011;6686;51.292;4.166;2023-03-26T18:21:44;6.47;;;2.70;;
13238;SDS011;6686;51.292;4.166;2023-03-26T18:24:37;7.60;;;2.77;;
13238;SDS011;6686;51.292;4.166;2023-03-26T18:27:22;10.43;;;3.00;;
13238;SDS011;6686;51.292;4.166;2023-03-26T18:30:18;6.07;;;2.60;;
13238;SDS011;6686;51.292;4.166;2023-03-26T18:33:10;8.05;;;2.60;;
13238;SDS011;6686;51.292;4.166;2023-03-26T18:35:49;6.63;;;2.50;;
13238;SDS011;6686;51.292;4.166;2023-03-26T18:38:34;7.47;;;2.70;;
13238;SDS011;6686;51.292;4.166;2023-03-26T18:41:24;5.03;;;2.10;;
13238;SDS011;6686;51.292;4.166;2023-03-26T18:44:17;6.50;;;2.17;;
13238;SDS011;6686;51.292;4.166;2023-03-26T18:46:56;4.03;;;1.80;;
13238;SDS011;6686;51.292;4.166;2023-03-26T18:49:43;5.70;;;2.00;;
13238;SDS011;6686;51.292;4.166;2023-03-26T18:52:28;7.70;;;2.63;;
13238;SDS011;6686;51.292;4.166;2023-03-26T18:55:14;4.40;;;1.70;;
13238;SDS011;6686;51.292;4.166;2023-03-26T18:58:07;7.53;;;2.40;;
13238;SDS011;6686;51.292;4.166;2023-03-26T19:00:46;5.63;;;2.00;;
13238;SDS011;6686;51.292;4.166;2023-03-26T19:03:35;5.27;;;2.23;;
13238;SDS011;6686;51.292;4.166;2023-03-26T19:06:24;6.07;;;2.20;;
13238;SDS011;6686;51.292;4.166;2023-03-26T19:09:09;8.63;;;2.47;;
13238;SDS011;6686;51.292;4.166;2023-03-26T19:11:55;7.27;;;1.97;;
13238;SDS011;6686;51.292;4.166;2023-03-26T19:17:41;8.43;;;2.13;;
13238;SDS011;6686;51.292;4.166;2023-03-26T19:20:31;4.03;;;2.10;;
13238;SDS011;6686;51.292;4.166;2023-03-26T19:23:15;7.90;;;2.87;;
13238;SDS011;6686;51.292;4.166;2023-03-26T19:26:01;6.00;;;2.42;;
13238;SDS011;6686;51.292;4.166;2023-03-26T19:28:53;7.82;;;2.45;;
13238;SDS011;6686;51.292;4.166;2023-03-26T19:31:38;8.93;;;2.40;;
13238;SDS011;6686;51.292;4.166;2023-03-26T19:34:31;6.47;;;2.40;;
13238;SDS011;6686;51.292;4.166;2023-03-26T19:37:16;8.73;;;2.20;;
13238;SDS011;6686;51.292;4.166;2023-03-26T19:40:16;7.57;;;2.43;;
13238;SDS011;6686;51.292;4.166;2023-03-26T19:42:57;5.13;;;2.27;;
13238;SDS011;6686;51.292;4.166;2023-03-26T19:45:43;8.35;;;2.50;;
13238;SDS011;6686;51.292;4.166;2023-03-26T19:48:34;4.60;;;2.17;;
13238;SDS011;6686;51.292;4.166;2023-03-26T19:51:22;5.30;;;2.00;;
13238;SDS011;6686;51.292;4.166;2023-03-26T19:54:12;4.97;;;2.00;;
13238;SDS011;6686;51.292;4.166;2023-03-26T19:56:58;7.20;;;1.83;;
13238;SDS011;6686;51.292;4.166;2023-03-26T19:59:44;11.53;;;2.40;;
13238;SDS011;6686;51.292;4.166;2023-03-26T20:02:30;8.27;;;2.20;;
13238;SDS011;6686;51.292;4.166;2023-03-26T20:08:12;10.03;;;2.20;;
13238;SDS011;6686;51.292;4.166;2023-03-26T20:10:57;6.40;;;2.20;;
13238;SDS011;6686;51.292;4.166;2023-03-26T20:13:43;2.20;;;1.90;;
13238;SDS011;6686;51.292;4.166;2023-03-26T20:16:29;4.60;;;1.90;;
13238;SDS011;6686;51.292;4.166;2023-03-26T20:19:18;6.60;;;1.90;;
13238;SDS011;6686;51.292;4.166;2023-03-26T20:22:04;7.73;;;2.00;;
13238;SDS011;6686;51.292;4.166;2023-03-26T20:24:50;8.97;;;2.20;;
13238;SDS011;6686;51.292;4.166;2023-03-26T20:27:41;7.37;;;1.93;;
13238;SDS011;6686;51.292;4.166;2023-03-26T20:30:27;8.10;;;2.10;;
13238;SDS011;6686;51.292;4.166;2023-03-26T20:33:21;7.37;;;1.97;;
13238;SDS011;6686;51.292;4.166;2023-03-26T20:36:07;6.90;;;1.50;;
13238;SDS011;6686;51.292;4.166;2023-03-26T20:38:51;4.80;;;2.13;;
13238;SDS011;6686;51.292;4.166;2023-03-26T20:41:42;7.80;;;2.40;;
13238;SDS011;6686;51.292;4.166;2023-03-26T20:44:25;6.00;;;2.17;;
13238;SDS011;6686;51.292;4.166;2023-03-26T20:47:18;7.27;;;2.13;;
13238;SDS011;6686;51.292;4.166;2023-03-26T20:50:00;8.70;;;2.10;;
13238;SDS011;6686;51.292;4.166;2023-03-26T20:52:47;6.82;;;2.20;;
13238;SDS011;6686;51.292;4.166;2023-03-26T20:55:38;8.30;;;2.43;;
13238;SDS011;6686;51.292;4.166;2023-03-26T20:58:24;8.10;;;2.23;;
13238;SDS011;6686;51.292;4.166;2023-03-26T21:01:10;6.90;;;2.67;;
13238;SDS011;6686;51.292;4.166;2023-03-26T21:03:58;7.93;;;2.27;;
13238;SDS011;6686;51.292;4.166;2023-03-26T21:06:44;7.17;;;2.27;;
13238;SDS011;6686;51.292;4.166;2023-03-26T21:09:30;9.87;;;2.50;;
13238;SDS011;6686;51.292;4.166;2023-03-26T21:12:25;12.23;;;2.37;;
13238;SDS011;6686;51.292;4.166;2023-03-26T21:15:14;3.97;;;1.87;;
13238;SDS011;6686;51.292;4.166;2023-03-26T21:18:00;5.90;;;2.47;;
13238;SDS011;6686;51.292;4.166;2023-03-26T21:20:48;6.18;;;1.90;;
13238;SDS011;6686;51.292;4.166;2023-03-26T21:23:36;5.83;;;2.27;;
13238;SDS011;6686;51.292;4.166;2023-03-26T21:26:31;6.43;;;1.98;;
13238;SDS011;6686;51.292;4.166;2023-03-26T21:29:21;6.43;;;1.70;;
13238;SDS011;6686;51.292;4.166;2023-03-26T21:32:10;6.20;;;2.27;;
13238;SDS011;6686;51.292;4.166;2023-03-26T21:34:56;3.87;;;2.00;;
13238;SDS011;6686;51.292;4.166;2023-03-26T21:37:43;3.60;;;1.77;;
13238;SDS011;6686;51.292;4.166;2023-03-26T21:40:28;8.13;;;1.90;;
13238;SDS011;6686;51.292;4.166;2023-03-26T21:43:14;5.47;;;1.57;;
13238;SDS011;6686;51.292;4.166;2023-03-26T21:46:00;9.17;;;2.47;;
13238;SDS011;6686;51.292;4.166;2023-03-26T21:48:46;4.13;;;1.43;;